Time;durP1;ratioP1;P1;durP2;ratioP2;P2;SDS_P1;SDS_P2;PMS_P1;PMS_P2;Temp;Humidity;BMP_temperature;BMP_pressure;BME280_temperature;BME280_humidity;BME280_pressure;Samples;Min_cycle;Max_cycle;Signal;HPM_P1;HPM_P2
2024/02/17 00:01:58;;;;;;;24.13;13.85;;;-5.80;99.90;;;;;;5071850;28;20044;-92
2024/02/17 00:04:24;;;;;;;31.85;15.88;;;-5.80;99.90;;;;;;5055872;28;20040;-88
2024/02/17 00:06:50;;;;;;;32.38;16.30;;;-5.80;99.90;;;;;;5059990;28;20032;-85
2024/02/17 00:09:16;;;;;;;28.50;15.50;;;-5.80;99.90;;;;;;5058852;28;20452;-84
2024/02/17 00:11:41;;;;;;;28.92;16.50;;;-5.70;99.90;;;;;;5051864;28;20078;-81
2024/02/17 00:14:07;;;;;;;28.83;15.02;;;-5.70;99.90;;;;;;5026572;28;20147;-82
2024/02/17 00:16:36;;;;;;;28.05;15.85;;;-5.70;99.90;;;;;;5051768;28;20506;-82
2024/02/17 00:19:02;;;;;;;22.23;13.98;;;-5.60;99.90;;;;;;5048332;28;20029;-83
2024/02/17 00:21:28;;;;;;;25.67;13.98;;;-5.60;99.90;;;;;;5050389;28;20496;-88
2024/02/17 00:23:54;;;;;;;31.27;15.20;;;-5.50;99.90;;;;;;5056945;28;20070;-89
2024/02/17 00:26:19;;;;;;;29.98;15.48;;;-5.50;99.90;;;;;;5057052;28;20059;-87
2024/02/17 00:28:45;;;;;;;36.35;18.48;;;-5.50;99.90;;;;;;5071154;28;20050;-88
2024/02/17 00:31:11;;;;;;;28.17;15.25;;;-5.50;99.90;;;;;;5048280;28;20037;-88
2024/02/17 00:33:37;;;;;;;26.50;15.77;;;-5.40;99.90;;;;;;5057371;28;20048;-86
2024/02/17 00:36:06;;;;;;;27.83;15.82;;;-5.40;99.90;;;;;;5055552;28;20493;-90
2024/02/17 00:38:32;;;;;;;26.15;14.93;;;-5.40;99.90;;;;;;5048916;28;20371;-88
2024/02/17 00:40:58;;;;;;;30.08;14.95;;;-5.40;99.90;;;;;;5056667;28;20019;-88
2024/02/17 00:43:24;;;;;;;30.60;17.13;;;-5.30;99.90;;;;;;5038460;28;20430;-88
2024/02/17 00:45:53;;;;;;;24.77;15.75;;;-5.30;99.90;;;;;;5038826;28;20037;-88
2024/02/17 00:48:20;;;;;;;30.95;15.38;;;-5.30;99.90;;;;;;5056533;28;20028;-88
2024/02/17 00:50:46;;;;;;;28.73;15.23;;;-5.30;99.90;;;;;;5055264;28;20057;-87
2024/02/17 00:53:12;;;;;;;28.55;15.63;;;-5.30;99.90;;;;;;5048574;28;20021;-88
2024/02/17 00:55:37;;;;;;;35.30;16.83;;;-5.30;99.90;;;;;;5053586;28;20025;-87
2024/02/17 00:58:03;;;;;;;27.67;15.23;;;-5.20;99.90;;;;;;5059978;28;20021;-87
2024/02/17 01:00:30;;;;;;;28.25;14.48;;;-5.20;99.90;;;;;;5055804;28;20051;-87
2024/02/17 01:02:55;;;;;;;25.42;15.00;;;-5.30;99.90;;;;;;5037073;28;20028;-86
2024/02/17 01:05:21;;;;;;;33.72;13.88;;;-5.30;99.90;;;;;;5055605;28;20032;-86
2024/02/17 01:07:48;;;;;;;28.70;15.82;;;-5.30;99.90;;;;;;5071060;28;20530;-88
2024/02/17 01:10:14;;;;;;;23.58;15.30;;;-5.30;99.90;;;;;;5065936;28;20424;-86
2024/02/17 01:12:40;;;;;;;25.35;14.88;;;-5.30;99.90;;;;;;5073655;28;20036;-86
2024/02/17 01:15:06;;;;;;;27.50;15.23;;;-5.30;99.90;;;;;;5077181;28;20017;-85
2024/02/17 01:17:32;;;;;;;23.70;14.57;;;-5.30;99.90;;;;;;5085417;28;20028;-86
2024/02/17 01:19:58;;;;;;;31.08;16.75;;;-5.20;99.90;;;;;;5083973;28;20015;-85
2024/02/17 01:22:24;;;;;;;29.83;15.57;;;-5.20;99.90;;;;;;5080909;28;20017;-86
2024/02/17 01:24:50;;;;;;;32.80;17.45;;;-5.30;99.90;;;;;;5078391;28;20068;-87
2024/02/17 01:27:16;;;;;;;27.23;15.05;;;-5.30;99.90;;;;;;5057856;28;20044;-86
2024/02/17 01:29:42;;;;;;;33.55;15.85;;;-5.20;99.90;;;;;;5075397;28;20020;-86
2024/02/17 01:32:09;;;;;;;26.05;16.00;;;-5.20;99.90;;;;;;5071057;28;20473;-85
2024/02/17 01:34:34;;;;;;;27.90;15.93;;;-5.20;99.90;;;;;;5078453;28;20028;-86
2024/02/17 01:37:00;;;;;;;25.92;16.08;;;-5.20;99.90;;;;;;5086795;28;20165;-86
2024/02/17 01:39:27;;;;;;;31.23;18.75;;;-5.20;99.90;;;;;;5096077;28;20044;-84
2024/02/17 01:41:56;;;;;;;23.35;11.43;;;-5.20;99.90;;;;;;5076790;28;20470;-86
2024/02/17 01:44:22;;;;;;;28.05;13.82;;;-5.20;99.90;;;;;;5080196;28;20397;-85
2024/02/17 01:46:51;;;;;;;26.55;13.93;;;-5.20;99.90;;;;;;5082089;28;20056;-85
2024/02/17 01:49:18;;;;;;;23.38;14.30;;;-5.20;99.90;;;;;;5081137;28;20024;-83
2024/02/17 01:51:46;;;;;;;18.08;11.27;;;-5.20;99.90;;;;;;5078187;28;20027;-84
2024/02/17 01:54:12;;;;;;;29.52;16.27;;;-5.20;99.90;;;;;;5075834;28;20559;-83
2024/02/17 01:56:40;;;;;;;28.38;16.65;;;-5.20;99.90;;;;;;5074720;28;20076;-85
2024/02/17 01:59:06;;;;;;;27.55;15.25;;;-5.20;99.90;;;;;;5074772;28;20029;-86
2024/02/17 02:01:33;;;;;;;32.15;16.30;;;-5.20;99.90;;;;;;5074629;28;20016;-85
2024/02/17 02:03:59;;;;;;;22.45;14.30;;;-5.20;99.90;;;;;;5056620;28;20031;-86
2024/02/17 02:06:26;;;;;;;29.83;16.27;;;-5.20;99.90;;;;;;5074166;28;20131;-86
2024/02/17 02:08:52;;;;;;;20.73;13.57;;;-5.20;99.90;;;;;;5074616;28;20036;-86
2024/02/17 02:11:19;;;;;;;29.00;14.70;;;-5.20;99.90;;;;;;5074783;28;20508;-84
2024/02/17 02:13:45;;;;;;;29.17;17.45;;;-5.20;99.90;;;;;;5075794;28;20028;-85
2024/02/17 02:16:11;;;;;;;32.90;16.60;;;-5.20;99.90;;;;;;5061632;28;20028;-86
2024/02/17 02:18:37;;;;;;;30.38;16.65;;;-5.20;99.90;;;;;;5072571;28;20040;-86
2024/02/17 02:21:06;;;;;;;30.92;15.50;;;-5.20;99.90;;;;;;5059306;28;20024;-86
2024/02/17 02:23:32;;;;;;;25.55;14.23;;;-5.20;99.90;;;;;;5070670;28;20540;-84
2024/02/17 02:25:58;;;;;;;25.73;15.52;;;-5.20;99.90;;;;;;5073565;28;20035;-86
2024/02/17 02:28:24;;;;;;;25.80;14.45;;;-5.20;99.90;;;;;;5073403;28;20099;-87
2024/02/17 02:30:53;;;;;;;30.27;14.13;;;-5.20;99.90;;;;;;5077502;28;20031;-86
2024/02/17 02:33:19;;;;;;;24.73;15.93;;;-5.20;99.90;;;;;;5056946;28;20081;-86
2024/02/17 02:35:47;;;;;;;28.95;15.82;;;-5.20;99.90;;;;;;5074202;28;20020;-86
2024/02/17 02:38:13;;;;;;;28.30;15.75;;;-5.20;99.90;;;;;;5077415;28;20016;-86
2024/02/17 02:40:39;;;;;;;28.17;16.20;;;-5.20;99.90;;;;;;5090926;28;20138;-87
2024/02/17 02:43:05;;;;;;;18.83;12.50;;;-5.20;99.90;;;;;;5081033;28;20020;-85
2024/02/17 02:45:33;;;;;;;25.75;16.55;;;-5.30;99.90;;;;;;5077225;28;20497;-87
2024/02/17 02:47:59;;;;;;;31.67;18.65;;;-5.30;99.90;;;;;;5078631;28;20051;-86
2024/02/17 02:50:25;;;;;;;24.23;15.60;;;-5.20;99.90;;;;;;5074111;28;20024;-85
2024/02/17 02:52:50;;;;;;;29.77;16.80;;;-5.20;99.90;;;;;;5071395;28;20024;-86
2024/02/17 02:55:17;;;;;;;25.75;15.68;;;-5.20;99.90;;;;;;5055459;28;20023;-87
2024/02/17 02:57:43;;;;;;;27.25;15.32;;;-5.30;99.90;;;;;;5075118;28;20017;-86
2024/02/17 03:00:09;;;;;;;28.95;14.32;;;-5.20;99.90;;;;;;5075651;28;20341;-86
2024/02/17 03:02:35;;;;;;;31.60;17.42;;;-5.20;99.90;;;;;;5074889;28;20031;-86
2024/02/17 03:05:00;;;;;;;28.98;15.32;;;-5.20;99.90;;;;;;5076258;28;20028;-86
2024/02/17 03:07:28;;;;;;;27.90;17.20;;;-5.20;99.90;;;;;;5056376;28;20032;-86
2024/02/17 03:09:54;;;;;;;17.65;13.27;;;-5.20;99.90;;;;;;5079686;28;20071;-86
2024/02/17 03:12:19;;;;;;;25.35;16.05;;;-5.20;99.90;;;;;;5082104;28;20025;-86
2024/02/17 03:14:45;;;;;;;25.58;15.57;;;-5.20;99.90;;;;;;5083575;28;20102;-86
2024/02/17 03:17:11;;;;;;;27.58;16.98;;;-5.30;99.90;;;;;;5071738;28;20518;-86
2024/02/17 03:19:37;;;;;;;31.95;17.25;;;-5.20;99.90;;;;;;5061225;28;20020;-86
2024/02/17 03:22:03;;;;;;;28.27;16.17;;;-5.30;99.90;;;;;;5084150;28;20024;-86
2024/02/17 03:24:29;;;;;;;31.15;16.35;;;-5.20;99.90;;;;;;5061638;28;20012;-87
2024/02/17 03:26:54;;;;;;;30.65;17.77;;;-5.20;99.90;;;;;;5084633;28;20035;-88
2024/02/17 03:29:20;;;;;;;31.10;16.33;;;-5.20;99.90;;;;;;5072668;28;20021;-87
2024/02/17 03:31:46;;;;;;;30.88;17.85;;;-5.20;99.90;;;;;;5072705;28;20028;-89
2024/02/17 03:34:13;;;;;;;23.33;13.50;;;-5.20;99.90;;;;;;5079629;28;20032;-89
2024/02/17 03:36:39;;;;;;;26.63;16.13;;;-5.20;99.90;;;;;;5075046;28;20107;-90
2024/02/17 03:39:08;;;;;;;30.90;17.13;;;-5.20;99.90;;;;;;5061226;28;20020;-91
2024/02/17 03:41:38;;;;;;;31.90;16.58;;;-5.20;99.90;;;;;;5069160;28;20529;-91
2024/02/17 03:44:04;;;;;;;34.45;19.27;;;-5.20;99.90;;;;;;5070669;28;20088;-89
2024/02/17 03:46:30;;;;;;;33.33;17.65;;;-5.30;99.90;;;;;;5077984;28;20489;-89
2024/02/17 03:48:56;;;;;;;43.67;24.08;;;-5.30;99.90;;;;;;5046678;28;20062;-89
2024/02/17 03:51:22;;;;;;;47.42;26.20;;;-5.30;99.90;;;;;;5082511;28;20032;-89
2024/02/17 03:53:48;;;;;;;53.53;28.42;;;-5.30;99.90;;;;;;5072678;28;20024;-91
2024/02/17 03:56:15;;;;;;;44.45;27.27;;;-5.30;99.90;;;;;;5067047;28;20032;-90
2024/02/17 03:58:41;;;;;;;51.63;31.60;;;-5.40;99.90;;;;;;5076137;28;20020;-89
2024/02/17 04:01:07;;;;;;;49.33;31.00;;;-5.30;99.90;;;;;;5075536;28;20036;-90
2024/02/17 04:03:32;;;;;;;52.30;32.20;;;-5.40;99.90;;;;;;5065435;28;20101;-91
2024/02/17 04:05:58;;;;;;;52.63;33.60;;;-5.30;99.90;;;;;;5074541;28;20500;-91
2024/02/17 04:08:24;;;;;;;53.13;34.95;;;-5.30;99.90;;;;;;4904991;28;4307405;-91
2024/02/17 04:10:50;;;;;;;55.55;33.70;;;-5.30;99.90;;;;;;5058595;28;20031;-90
2024/02/17 04:13:17;;;;;;;55.92;34.30;;;-5.30;99.90;;;;;;5074640;28;20017;-90
2024/02/17 04:15:43;;;;;;;47.87;31.03;;;-5.30;99.90;;;;;;5077997;28;20477;-91
2024/02/17 04:18:11;;;;;;;51.15;27.92;;;-5.30;99.90;;;;;;5091087;28;20024;-89
2024/02/17 04:20:37;;;;;;;42.92;26.08;;;-5.30;99.90;;;;;;5060555;28;20481;-90
2024/02/17 04:23:07;;;;;;;44.57;22.40;;;-5.30;99.90;;;;;;5078771;28;20076;-90
2024/02/17 04:25:35;;;;;;;46.20;27.15;;;-5.30;99.90;;;;;;5063748;28;20020;-90
2024/02/17 04:28:03;;;;;;;25.55;17.65;;;-5.30;99.90;;;;;;5055325;28;20029;-91
2024/02/17 04:30:30;;;;;;;35.58;22.45;;;-5.30;99.90;;;;;;5060153;28;20074;-91
2024/02/17 04:32:56;;;;;;;29.15;21.50;;;-5.30;99.90;;;;;;5081498;28;20020;-91
2024/02/17 04:35:22;;;;;;;31.67;20.42;;;-5.40;99.90;;;;;;5067729;28;20055;-91
2024/02/17 04:37:48;;;;;;;42.30;22.85;;;-5.40;99.90;;;;;;5085260;28;20094;-91
2024/02/17 04:40:14;;;;;;;31.95;17.90;;;-5.40;99.90;;;;;;5041332;28;20020;-87
2024/02/17 04:42:40;;;;;;;27.00;15.85;;;-5.40;99.90;;;;;;5076354;28;20051;-88
2024/02/17 04:45:07;;;;;;;30.95;16.10;;;-5.40;99.90;;;;;;5074437;28;20637;-88
2024/02/17 04:47:33;;;;;;;31.38;18.10;;;-5.50;99.90;;;;;;5074361;28;20515;-88
2024/02/17 04:49:58;;;;;;;40.58;19.02;;;-5.50;99.90;;;;;;5073932;28;20084;-89
2024/02/17 04:52:26;;;;;;;21.10;12.68;;;-5.60;99.90;;;;;;5082033;28;20001;-89
2024/02/17 04:54:52;;;;;;;30.17;17.75;;;-5.60;99.90;;;;;;5070869;28;20044;-86
2024/02/17 04:57:18;;;;;;;31.95;17.73;;;-5.60;99.90;;;;;;5072844;28;20028;-89
2024/02/17 04:59:44;;;;;;;25.60;15.63;;;-5.60;99.90;;;;;;5084048;28;20385;-87
2024/02/17 05:02:17;;;;;;;27.17;14.73;;;-5.60;99.90;;;;;;5070482;28;20025;-88
2024/02/17 05:04:43;;;;;;;22.35;14.82;;;-5.60;99.90;;;;;;5071703;28;20021;-87
2024/02/17 05:07:11;;;;;;;37.08;20.55;;;-5.60;99.90;;;;;;5084948;28;20037;-87
2024/02/17 05:09:37;;;;;;;35.22;16.95;;;-5.60;99.90;;;;;;5094090;28;20044;-86
2024/02/17 05:12:03;;;;;;;33.03;12.85;;;-5.60;99.90;;;;;;5090647;28;20028;-87
2024/02/17 05:14:29;;;;;;;35.03;19.95;;;-5.60;99.90;;;;;;5051633;28;20083;-88
2024/02/17 05:16:55;;;;;;;28.42;17.05;;;-5.60;99.90;;;;;;5052221;28;20031;-89
2024/02/17 05:19:21;;;;;;;33.25;20.83;;;-5.60;99.90;;;;;;5088314;28;20020;-89
2024/02/17 05:21:47;;;;;;;31.17;19.80;;;-5.60;99.90;;;;;;5082112;28;20043;-90
2024/02/17 05:24:12;;;;;;;27.38;15.52;;;-5.50;99.90;;;;;;5090742;28;20016;-89
2024/02/17 05:26:39;;;;;;;31.63;17.02;;;-5.50;99.90;;;;;;5094184;28;20054;-93
2024/02/17 05:29:06;;;;;;;25.08;17.20;;;-5.50;99.90;;;;;;5082307;28;20104;-90
2024/02/17 05:31:33;;;;;;;16.60;11.50;;;-5.50;99.90;;;;;;5083034;28;20029;-91
2024/02/17 05:33:59;;;;;;;29.90;16.80;;;-5.50;99.90;;;;;;5047448;28;20474;-92
2024/02/17 05:36:26;;;;;;;37.35;16.73;;;-5.60;99.90;;;;;;5062323;28;20025;-92
2024/02/17 05:38:52;;;;;;;23.52;13.70;;;-5.60;99.90;;;;;;5061928;28;20024;-92
2024/02/17 05:41:18;;;;;;;25.77;14.02;;;-5.60;99.90;;;;;;5064006;28;20032;-94
2024/02/17 05:43:44;;;;;;;22.33;13.70;;;-5.60;99.90;;;;;;5091091;28;20032;-92
2024/02/17 05:46:10;;;;;;;19.10;11.15;;;-5.60;99.90;;;;;;5082805;28;20561;-92
2024/02/17 05:48:37;;;;;;;33.03;18.85;;;-5.60;99.90;;;;;;5077685;28;20235;-93
2024/02/17 05:51:03;;;;;;;22.90;16.48;;;-5.60;99.90;;;;;;5063167;28;20035;-93
2024/02/17 05:53:30;;;;;;;27.70;15.93;;;-5.60;99.90;;;;;;5089553;28;20051;-91
2024/02/17 05:55:56;;;;;;;;;;;-5.60;99.90;;;;;;5067857;28;20107;-92
2024/02/17 05:58:22;;;;;;;31.70;17.55;;;-5.60;99.90;;;;;;5073725;28;19911;-92
2024/02/17 06:00:50;;;;;;;28.20;14.52;;;-5.50;99.90;;;;;;5107185;28;20033;-93
2024/02/17 06:03:19;;;;;;;24.58;15.38;;;-5.50;99.90;;;;;;5068758;28;20017;-92
2024/02/17 06:05:45;;;;;;;26.70;16.92;;;-5.50;99.90;;;;;;5072617;28;20092;-92
2024/02/17 06:08:11;;;;;;;20.77;13.15;;;-5.50;99.90;;;;;;5095072;28;20028;-93
2024/02/17 06:10:36;;;;;;;24.50;14.95;;;-5.50;99.90;;;;;;5081255;28;20486;-89
2024/02/17 06:13:02;;;;;;;35.55;19.05;;;-5.50;99.90;;;;;;5100334;28;20028;-90
2024/02/17 06:15:28;;;;;;;24.77;14.45;;;-5.50;99.90;;;;;;5095592;28;20103;-87
2024/02/17 06:23:23;;;;;;;22.35;13.50;;;-5.50;99.90;;;;;;5084278;28;20089;-88
2024/02/17 06:25:49;;;;;;;31.63;17.80;;;-5.50;99.90;;;;;;5080627;28;20521;-90
2024/02/17 06:28:15;;;;;;;27.08;14.95;;;-5.50;99.90;;;;;;5074315;28;20028;-88
2024/02/17 06:30:40;;;;;;;28.80;14.80;;;-5.40;99.90;;;;;;5055330;28;20195;-86
2024/02/17 06:33:06;;;;;;;30.92;18.80;;;-5.40;99.90;;;;;;5076637;28;20052;-87
2024/02/17 06:35:32;;;;;;;30.83;15.57;;;-5.30;99.90;;;;;;5053831;28;20131;-91
2024/02/17 06:37:58;;;;;;;27.92;15.90;;;-5.20;99.90;;;;;;5075925;28;20021;-88
2024/02/17 06:40:24;;;;;;;32.58;17.63;;;-5.10;99.90;;;;;;5063921;28;20027;-88
2024/02/17 06:42:50;;;;;;;32.03;18.05;;;-5.10;99.90;;;;;;5078002;28;20056;-88
2024/02/17 06:45:16;;;;;;;33.28;17.05;;;-5.10;99.90;;;;;;5064650;28;20179;-89
2024/02/17 06:47:43;;;;;;;16.10;8.88;;;-5.00;99.90;;;;;;5075435;28;20032;-89
2024/02/17 06:50:13;;;;;;;25.92;13.32;;;-4.90;99.90;;;;;;5091705;28;20032;-90
2024/02/17 06:52:38;;;;;;;31.10;17.95;;;-4.80;99.90;;;;;;5080782;28;20020;-89
2024/02/17 06:55:05;;;;;;;29.40;17.65;;;-4.80;99.90;;;;;;5067724;28;20048;-88
2024/02/17 06:57:31;;;;;;;28.40;17.48;;;-4.70;99.90;;;;;;5076785;28;20090;-88
2024/02/17 06:59:58;;;;;;;32.58;16.95;;;-4.60;99.90;;;;;;5096205;28;20028;-90
2024/02/17 07:02:24;;;;;;;29.20;19.60;;;-4.50;99.90;;;;;;5067354;28;20125;-92
2024/02/17 07:04:50;;;;;;;33.70;14.13;;;-4.40;99.90;;;;;;5081252;28;20115;-90
2024/02/17 07:07:17;;;;;;;36.37;19.53;;;-4.40;99.90;;;;;;5063664;28;20418;-90
2024/02/17 07:09:43;;;;;;;27.45;16.35;;;-4.30;99.90;;;;;;5074013;28;20321;-90
2024/02/17 07:12:09;;;;;;;24.20;13.63;;;-4.30;99.90;;;;;;5086159;28;20112;-90
2024/02/17 07:14:35;;;;;;;34.78;17.77;;;-4.20;99.90;;;;;;5085500;28;20028;-91
2024/02/17 07:17:01;;;;;;;26.73;17.05;;;-4.10;99.90;;;;;;5064950;28;20070;-91
2024/02/17 07:19:27;;;;;;;34.80;17.45;;;-4.10;99.90;;;;;;5060320;28;20075;-91
2024/02/17 07:21:52;;;;;;;36.13;17.50;;;-4.10;99.90;;;;;;5085636;28;20029;-91
2024/02/17 07:24:18;;;;;;;26.67;14.63;;;-4.00;99.90;;;;;;5080123;28;20023;-90
2024/02/17 07:26:44;;;;;;;35.85;21.98;;;-3.90;99.90;;;;;;5081696;28;20036;-91
2024/02/17 07:29:12;;;;;;;33.35;17.52;;;-3.80;99.90;;;;;;5094426;28;20098;-90
2024/02/17 07:31:42;;;;;;;36.20;18.35;;;-3.70;99.90;;;;;;5087110;28;20024;-90
2024/02/17 07:34:09;;;;;;;26.40;16.17;;;-3.60;99.90;;;;;;5079430;28;20027;-90
2024/02/17 07:36:35;;;;;;;24.53;14.00;;;-3.50;99.90;;;;;;5081059;28;20377;-90
2024/02/17 07:39:01;;;;;;;26.05;17.45;;;-3.50;99.90;;;;;;5070039;28;20277;-91
2024/02/17 07:41:28;;;;;;;31.85;15.68;;;-3.40;99.90;;;;;;5095245;28;20078;-90
2024/02/17 07:43:54;;;;;;;35.03;18.83;;;-3.40;99.90;;;;;;5087119;28;20041;-91
2024/02/17 07:46:20;;;;;;;33.58;16.65;;;-3.30;99.90;;;;;;5072141;28;20068;-90
2024/02/17 07:48:46;;;;;;;39.22;19.08;;;-3.30;99.90;;;;;;5057179;28;20029;-88
2024/02/17 07:51:12;;;;;;;32.85;15.13;;;-3.30;99.90;;;;;;5060983;28;20036;-89
2024/02/17 07:53:38;;;;;;;35.60;17.37;;;-3.30;99.90;;;;;;5059306;28;20017;-89
2024/02/17 07:56:05;;;;;;;23.42;14.90;;;-3.30;99.90;;;;;;5070607;28;20021;-89
2024/02/17 07:58:31;;;;;;;20.55;14.60;;;-3.20;99.90;;;;;;5076026;28;20020;-90
2024/02/17 08:00:57;;;;;;;18.00;10.60;;;-3.30;99.90;;;;;;5078928;28;20044;-90
2024/02/17 08:03:24;;;;;;;30.50;17.67;;;-3.30;99.90;;;;;;5078855;28;20074;-89
2024/02/17 08:05:50;;;;;;;32.35;17.00;;;-3.40;99.90;;;;;;5077049;28;20040;-92
2024/02/17 08:08:16;;;;;;;36.97;18.50;;;-3.40;99.90;;;;;;5054030;28;20036;-92
2024/02/17 08:10:42;;;;;;;27.00;14.38;;;-3.30;99.90;;;;;;5080748;28;20051;-93
2024/02/17 08:13:08;;;;;;;29.75;14.30;;;-3.10;99.90;;;;;;5071725;28;20017;-92
2024/02/17 08:15:34;;;;;;;32.88;14.63;;;-3.10;99.90;;;;;;5104244;28;20442;-90
2024/02/17 08:18:01;;;;;;;28.65;15.82;;;-3.10;99.90;;;;;;5072508;28;20021;-90
2024/02/17 08:20:28;;;;;;;27.88;13.57;;;-3.10;99.90;;;;;;5056045;28;20036;-90
2024/02/17 08:22:55;;;;;;;28.55;14.73;;;-3.10;99.90;;;;;;5070816;28;20029;-93
2024/02/17 08:25:25;;;;;;;26.60;16.20;;;-3.00;99.90;;;;;;5072900;28;20037;-92
2024/02/17 08:27:53;;;;;;;29.13;17.50;;;-3.00;99.90;;;;;;5077754;28;20078;-91
2024/02/17 08:30:21;;;;;;;;;;;-3.00;99.90;;;;;;5062500;28;20063;-93
2024/02/17 08:32:47;;;;;;;29.17;15.50;;;-3.00;99.90;;;;;;5074267;28;19892;-84
2024/02/17 08:35:13;;;;;;;25.15;13.80;;;-2.90;99.90;;;;;;5077531;28;20072;-90
2024/02/17 08:37:39;;;;;;;14.60;9.63;;;-2.80;99.90;;;;;;5068716;28;20072;-90
2024/02/17 08:40:07;;;;;;;25.63;15.18;;;-2.50;99.90;;;;;;5045035;28;20021;-88
2024/02/17 08:42:33;;;;;;;24.17;14.32;;;-2.40;99.90;;;;;;5058449;28;20036;-91
2024/02/17 08:44:59;;;;;;;32.20;16.27;;;-2.30;99.90;;;;;;5054169;28;20040;-90
2024/02/17 08:47:26;;;;;;;25.50;15.80;;;-2.30;99.90;;;;;;5045314;28;20051;-91
2024/02/17 08:49:52;;;;;;;24.60;14.88;;;-2.20;99.90;;;;;;5033820;28;20125;-92
2024/02/17 08:52:18;;;;;;;22.35;12.18;;;-2.10;99.90;;;;;;5064845;28;20072;-92
2024/02/17 08:54:44;;;;;;;30.13;16.33;;;-2.20;99.90;;;;;;5071048;28;20037;-90
2024/02/17 08:57:10;;;;;;;28.35;16.55;;;-2.20;99.90;;;;;;5076479;28;20044;-89
2024/02/17 08:59:38;;;;;;;25.85;15.15;;;-2.20;99.90;;;;;;5045289;28;20067;-89
2024/02/17 09:02:04;;;;;;;27.70;15.65;;;-2.00;99.90;;;;;;5029003;28;20032;-88
2024/02/17 09:04:30;;;;;;;19.75;10.18;;;-1.90;99.90;;;;;;5056975;28;20025;-88
2024/02/17 09:06:58;;;;;;;31.45;15.20;;;-1.80;99.90;;;;;;5040131;28;20383;-89
2024/02/17 09:09:26;;;;;;;25.33;15.18;;;-1.80;99.90;;;;;;5054668;28;20118;-91
2024/02/17 09:11:52;;;;;;;27.65;15.60;;;-1.70;99.90;;;;;;5059149;28;20033;-88
2024/02/17 09:14:17;;;;;;;28.50;14.63;;;-1.60;99.90;;;;;;5067047;28;20077;-89
2024/02/17 09:16:43;;;;;;;25.70;15.45;;;;;;;;;;5089901;28;20032;-88
2024/02/17 09:19:10;;;;;;;31.85;13.65;;;;;;;;;;5067070;28;20429;-88
2024/02/17 09:21:36;;;;;;;23.23;13.38;;;;;;;;;;5074021;28;20074;-92
2024/02/17 09:24:03;;;;;;;24.00;12.07;;;;;;;;;;5086878;28;20025;-89
2024/02/17 09:26:29;;;;;;;20.88;11.77;;;;;;;;;;5080069;28;20293;-89
2024/02/17 09:28:55;;;;;;;17.73;11.25;;;;;;;;;;5080470;28;20024;-87
2024/02/17 09:31:22;;;;;;;24.70;14.88;;;;;;;;;;5078608;28;20055;-93
2024/02/17 09:33:48;;;;;;;23.27;13.18;;;;;;;;;;5089061;28;20055;-91
2024/02/17 09:36:15;;;;;;;25.45;11.63;;;;;;;;;;5081035;28;20020;-87
2024/02/17 09:38:41;;;;;;;26.02;16.38;;;;;;;;;;5058708;28;20029;-88
2024/02/17 09:41:07;;;;;;;23.27;13.35;;;;;;;;;;5053945;28;20024;-86
2024/02/17 09:43:34;;;;;;;20.60;13.90;;;;;;;;;;5074123;28;20043;-85
2024/02/17 09:46:00;;;;;;;23.23;15.45;;;;;;;;;;5077233;28;20359;-86
2024/02/17 09:48:26;;;;;;;24.15;15.25;;;;;;;;;;5060489;28;20090;-86
2024/02/17 09:50:54;;;;;;;22.45;14.77;;;;;;;;;;5079225;28;20103;-88
2024/02/17 09:53:20;;;;;;;28.77;15.13;;;;;;;;;;5085220;28;20028;-89
2024/02/17 09:55:48;;;;;;;20.23;14.52;;;;;;;;;;5087383;28;20481;-87
2024/02/17 09:58:14;;;;;;;;;;;-1.40;99.90;;;;;;5080575;28;20104;-87
2024/02/17 10:00:39;;;;;;;19.70;10.27;;;1.20;99.90;;;;;;5078125;28;20001;-88
2024/02/17 10:03:06;;;;;;;26.50;14.05;;;;;;;;;;5077690;28;20035;-87
2024/02/17 10:05:33;;;;;;;26.52;13.40;;;;;;;;;;5062773;28;20075;-88
2024/02/17 10:07:59;;;;;;;24.30;14.93;;;;;;;;;;5064732;28;20036;-88
2024/02/17 10:10:25;;;;;;;24.05;11.23;;;;;;;;;;5055140;28;20266;-83
2024/02/17 10:12:53;;;;;;;23.98;14.15;;;;;;;;;;5080722;28;20047;-86
2024/02/17 10:15:20;;;;;;;26.02;14.07;;;;;;;;;;5081083;28;20020;-89
2024/02/17 10:17:47;;;;;;;25.38;10.80;;;;;;;;;;5076241;28;20031;-84
2024/02/17 10:20:13;;;;;;;41.70;16.70;;;;;;;;;;5086482;28;20020;-86
2024/02/17 10:22:41;;;;;;;22.02;15.70;;;;;;;;;;5077303;28;20257;-86
2024/02/17 10:25:08;;;;;;;22.35;10.50;;;;;;;;;;5060654;28;20111;-89
2024/02/17 10:27:35;;;;;;;26.25;15.20;;;;;;;;;;5073906;28;20039;-89
2024/02/17 10:30:07;;;;;;;22.65;10.65;;;;;;;;;;5053548;28;20024;-86
2024/02/17 10:32:33;;;;;;;26.83;13.13;;;;;;;;;;5077116;28;20032;-84
2024/02/17 10:35:07;;;;;;;22.50;13.10;;;;;;;;;;5066956;28;20039;-85
2024/02/17 10:37:34;;;;;;;26.92;12.82;;;;;;;;;;5075607;28;20059;-86
2024/02/17 10:40:01;;;;;;;16.85;9.18;;;;;;;;;;5074021;28;20012;-83
2024/02/17 10:42:30;;;;;;;16.45;11.57;;;;;;;;;;5075201;28;20052;-81
2024/02/17 10:45:00;;;;;;;15.93;9.05;;;;;;;;;;5075230;28;20029;-81
2024/02/17 10:47:36;;;;;;;20.65;9.10;;;;;;;;;;5076674;28;20033;-85
2024/02/17 10:50:13;;;;;;;11.95;7.22;;;;;;;;;;5078366;28;20377;-85
2024/02/17 10:53:01;;;;;;;19.77;9.77;;;;;;;;;;5088544;28;20039;-90
2024/02/17 10:55:32;;;;;;;17.08;10.55;;;;;;;;;;5057918;28;20090;-91
2024/02/17 10:58:10;;;;;;;20.27;11.73;;;;;;;;;;5062358;28;20533;-93
2024/02/17 11:00:41;;;;;;;22.33;12.70;;;;;;;;;;5064027;28;20027;-90
2024/02/17 11:03:08;;;;;;;16.48;9.88;;;;;;;;;;5056311;28;20482;-89
2024/02/17 11:05:36;;;;;;;12.13;8.73;;;;;;;;;;5075187;28;20028;-87
2024/02/17 11:08:02;;;;;;;;;;;;;;;;;;5039739;28;20363;-87
2024/02/17 11:10:29;;;;;;;12.38;8.00;;;;;;;;;;5054729;28;19989;-88
2024/02/17 11:12:55;;;;;;;19.38;8.85;;;;;;;;;;5067854;28;20095;-91
2024/02/17 11:15:22;;;;;;;11.07;6.97;;;;;;;;;;5056338;28;20515;-88
2024/02/17 11:17:52;;;;;;;17.43;10.33;;;;;;;;;;5051282;28;20073;-83
2024/02/17 11:20:19;;;;;;;26.95;14.15;;;;;;;;;;5072100;28;20487;-82
2024/02/17 11:22:50;;;;;;;16.70;9.75;;;;;;;;;;5072357;28;20019;-85
2024/02/17 11:25:41;;;;;;;13.57;9.48;;;;;;;;;;5041265;28;20025;-86
2024/02/17 11:28:16;;;;;;;15.93;9.43;;;;;;;;;;5073911;28;20385;-84
2024/02/17 11:30:50;;;;;;;17.95;9.00;;;;;;;;;;5058177;28;20394;-83
2024/02/17 11:33:17;;;;;;;18.83;9.95;;;;;;;;;;5059909;28;20065;-88
2024/02/17 11:35:47;;;;;;;16.02;10.02;;;;;;;;;;5073678;28;20027;-86
2024/02/17 11:38:15;;;;;;;15.07;8.65;;;;;;;;;;5042441;28;20050;-84
2024/02/17 11:40:41;;;;;;;15.88;9.35;;;;;;;;;;5065223;28;20078;-85
2024/02/17 11:43:07;;;;;;;14.80;8.85;;;;;;;;;;5076581;28;20567;-83
2024/02/17 11:45:35;;;;;;;20.20;8.25;;;;;;;;;;5059558;28;20045;-83
2024/02/17 11:48:03;;;;;;;18.90;10.18;;;;;;;;;;5073998;28;20107;-84
2024/02/17 11:50:29;;;;;;;14.95;8.38;;;;;;;;;;5045882;28;20124;-84
2024/02/17 11:52:56;;;;;;;17.80;9.55;;;;;;;;;;5066918;28;20024;-87
2024/02/17 11:55:22;;;;;;;12.80;7.80;;;;;;;;;;5067018;28;20029;-86
2024/02/17 11:57:52;;;;;;;17.27;9.68;;;;;;;;;;5064713;28;20395;-87
2024/02/17 12:00:21;;;;;;;16.45;8.40;;;;;;;;;;5072439;28;20095;-85
2024/02/17 12:02:47;;;;;;;14.30;9.32;;;;;;;;;;5075548;28;20020;-84
2024/02/17 12:05:15;;;;;;;9.40;5.97;;;;;;;;;;5070750;28;20059;-83
2024/02/17 12:07:41;;;;;;;12.68;8.05;;;;;;;;;;5079389;28;20474;-85
2024/02/17 12:10:08;;;;;;;20.13;9.45;;;;;;;;;;5072255;28;20098;-81
2024/02/17 12:12:39;;;;;;;15.20;6.90;;;;;;;;;;5085612;28;20130;-83
2024/02/17 12:15:08;;;;;;;8.82;5.85;;;;;;;;;;5082703;28;20376;-82
2024/02/17 12:17:43;;;;;;;15.20;9.18;;;;;;;;;;5075611;28;20107;-82
2024/02/17 12:20:11;;;;;;;16.38;8.43;;;;;;;;;;5079349;28;20084;-86
2024/02/17 12:22:37;;;;;;;16.77;10.90;;;;;;;;;;5075937;28;20103;-82
2024/02/17 12:25:03;;;;;;;15.52;7.65;;;;;;;;;;5058067;28;20537;-82
2024/02/17 12:27:30;;;;;;;12.07;6.93;;;;;;;;;;5075985;28;20036;-81
2024/02/17 12:29:56;;;;;;;16.10;8.07;;;;;;;;;;5081466;28;20025;-82
2024/02/17 12:32:22;;;;;;;12.18;8.43;;;;;;;;;;5050033;28;20104;-83
2024/02/17 12:34:49;;;;;;;13.45;6.45;;;;;;;;;;5071841;28;20503;-81
2024/02/17 12:37:16;;;;;;;11.68;6.90;;;;;;;;;;5074447;28;20039;-84
2024/02/17 12:39:42;;;;;;;11.15;7.32;;;;;;;;;;5081925;28;20021;-87
2024/02/17 12:42:08;;;;;;;7.03;4.88;;;;;;;;;;5078266;28;20028;-85
2024/02/17 12:44:35;;;;;;;8.20;5.90;;;;;;;;;;5077630;28;20021;-84
2024/02/17 12:47:12;;;;;;;13.50;6.20;;;;;;;;;;5076014;28;20024;-83
2024/02/17 12:49:39;;;;;;;13.98;8.48;;;;;;;;;;5075697;28;20132;-81
2024/02/17 12:52:05;;;;;;;17.52;7.43;;;;;;;;;;5075659;28;20024;-81
2024/02/17 12:54:32;;;;;;;17.95;9.00;;;;;;;;;;5055206;28;20028;-82
2024/02/17 12:56:59;;;;;;;10.03;7.27;;;;;;;;;;5076597;28;20065;-84
2024/02/17 12:59:25;;;;;;;19.47;7.43;;;;;;;;;;5061391;28;20077;-90
2024/02/17 13:01:51;;;;;;;11.15;5.55;;;;;;;;;;5090146;28;20031;-87